x

Big Sable Point, Mi (bsbm4) Weather Station

4:40am - Wed 24th May 2017 All times are CDT. -5 hours from GMT.

  • Wind
    5mph, 6mph gusts
  • Air Temp 50°f
  • Sea Pressure 1005.4mb
  • Big Sable Point, Mi
  • Big Sable Point, Mi

More Historic Weather Station data

Upgrade to MSW Pro to gain access to the past 30 days of data for over 8000 Wavebouys and Weather Stations around the globe.

Join Pro

Comparision Forecast

View Surf forecast
   
Wed 05/24 4:40am 5 6 mph 1005.4mb 50f
4:30am 5 6 mph 1005.4mb 50f
4:20am 5 5 mph 1005.4mb 50f
4:10am 3 5 mph 1005.4mb 49f
4:00am 3 5 mph 1005.4mb 49f
3:40am 3 5 mph 1005.4mb 48f
3:30am 3 5 mph 1005.8mb 48f
3:20am 2 3 mph 1005.8mb 49f
3:10am 2 5 mph 1005.8mb 49f
3:00am 1 2 mph 1005.8mb 49f
2:40am 2 3 mph 1005.8mb 49f
2:30am 3 6 mph 1005.8mb 49f
2:20am 5 6 mph 1005.8mb 48f
2:10am 3 5 mph 1005.8mb 49f
2:00am 5 7 mph 1005.8mb 49f
1:40am 5 6 mph 1006.1mb 48f
1:30am 5 7 mph 1006.1mb 48f
1:20am 6 7 mph 1006.1mb 49f
1:10am 3 8 mph 1006.1mb 49f
1:00am 7 8 mph 1006.1mb 49f
12:40am 8 9 mph 1006.8mb 48f
12:30am 5 5 mph 1007.1mb 48f
12:20am 3 5 mph 1007.1mb 47f
12:10am 6 7 mph 1007.1mb 47f
12:00am 6 7 mph 1007.1mb 47f
Tue 05/23 11:40pm 3 5 mph 1007.5mb 48f
11:30pm 2 3 mph 1007.5mb 49f
11:20pm 2 3 mph 1007.5mb 48f
11:10pm 2 3 mph 1007.5mb 48f
11:00pm 2 3 mph 1007.8mb 48f
10:40pm  -  3 mph 1007.8mb 49f
10:30pm 2 2 mph 1007.8mb 49f
10:20pm 2 2 mph 1007.8mb 49f
10:10pm 1 2 mph 1007.8mb 49f
10:00pm 2 3 mph 1007.8mb 49f
9:40pm 6 7 mph 1007.8mb 48f
9:30pm 3 6 mph 1007.8mb 51f
9:20pm 1 5 mph 1008.1mb 52f
9:10pm 3 3 mph 1008.1mb 52f
9:00pm 3 5 mph 1008.1mb 52f
8:40pm 3 5 mph 1007.8mb 51f
8:30pm 3 6 mph 1008.1mb 51f
8:20pm 6 6 mph 1008.1mb 51f
8:10pm 6 7 mph 1008.5mb 51f
8:00pm 3 5 mph 1008.5mb 51f
7:40pm 3 5 mph 1008.5mb 51f
7:30pm 3 5 mph 1008.5mb 50f
7:20pm 3 5 mph 1008.5mb 50f
7:10pm 3 3 mph 1008.5mb 49f
7:00pm 3 5 mph 1008.5mb 49f
6:40pm 3 6 mph 1008.5mb 48f
6:30pm 6 6 mph 1008.5mb 47f
6:20pm 5 6 mph 1008.5mb 48f
6:10pm 3 6 mph 1008.5mb 48f
6:00pm 5 6 mph 1008.8mb 48f
5:40pm 5 7 mph 1008.8mb 48f
5:30pm 6 8 mph 1008.5mb 48f
5:20pm 5 6 mph 1008.5mb 49f
5:10pm 1 3 mph 1008.5mb 49f
5:00pm 3 5 mph 1008.5mb 49f
4:40pm 5 7 mph 1008.5mb 50f
4:30pm 6 8 mph 1008.5mb 51f
4:20pm 7 9 mph 1008.5mb 51f
4:10pm 7 8 mph 1008.5mb 52f
4:00pm 3 5 mph 1008.5mb 50f
3:40pm 1 3 mph 1008.5mb 50f
3:30pm 2 3 mph 1008.8mb 49f
3:20pm 3 5 mph 1008.8mb 49f
3:10pm 3 5 mph 1008.8mb 50f
3:00pm 3 5 mph 1008.8mb 50f
2:40pm 5 8 mph 1008.8mb 53f
2:30pm 5 9 mph 1008.8mb 53f
2:20pm 7 9 mph 1008.8mb 53f
2:10pm 6 11 mph 1008.8mb 53f
2:00pm 8 11 mph 1008.8mb 52f
1:40pm 6 9 mph 1009.1mb 53f
1:30pm 7 9 mph 1009.1mb 53f
1:20pm 6 8 mph 1009.5mb 53f
1:10pm 6 9 mph 1009.5mb 53f
1:00pm 6 10 mph 1009.5mb 53f
12:40pm 6 9 mph 1009.5mb 54f
12:30pm 6 8 mph 1009.8mb 54f
12:20pm 6 8 mph 1009.8mb 53f
12:10pm 6 8 mph 1009.8mb 53f
12:00pm 6 7 mph 1009.8mb 53f
11:40am 5 7 mph 1009.8mb 54f
11:30am 5 8 mph 1010.2mb 55f
11:20am 7 9 mph 1010.2mb 55f
11:10am 8 9 mph 1010.2mb 55f
11:00am 7 9 mph 1010.2mb 55f
10:40am 7 10 mph 1010.2mb 55f
10:30am 6 8 mph 1010.2mb 56f
10:20am 7 10 mph 1010.2mb 55f
10:10am 8 11 mph 1010.2mb 54f
10:00am 8 11 mph 1010.2mb 54f
9:40am 6 9 mph 1010.5mb 52f
9:30am 7 10 mph 1010.2mb 55f
9:20am 8 10 mph 1010.2mb 55f
9:10am 7 10 mph 1010.2mb 56f
9:00am 8 11 mph 1010.2mb 56f
8:40am 8 11 mph 1010.2mb 56f
8:30am 8 13 mph 1010.2mb 56f
8:20am 9 14 mph 1010.2mb 56f
8:10am 10 15 mph 1010.2mb 56f
8:00am 10 16 mph 1009.8mb 56f
7:40am 10 14 mph 1010.2mb 56f
7:30am 8 14 mph 1009.8mb 56f
7:20am 10 14 mph 1009.8mb 55f
7:10am 10 14 mph 1010.2mb 55f
7:00am 11 14 mph 1010.2mb 55f
6:40am 8 15 mph 1010.2mb 54f
6:30am 9 15 mph 1010.2mb 54f
6:20am 10 16 mph 1010.2mb 54f
6:10am 9 13 mph 1009.8mb 54f
6:00am 6 8 mph 1009.8mb 53f
5:50am 6 9 mph 1009.8mb 53f
5:40am 6 9 mph 1009.8mb 53f
5:30am 5 8 mph 1010.2mb 53f
5:20am 5 8 mph 1010.2mb 52f
5:10am 6 8 mph 1010.2mb 52f
5:00am 7 8 mph 1010.2mb 52f
4:50am 6 8 mph 1010.2mb 52f
4:40am 6 8 mph 1009.8mb 52f
4:30am 6 9 mph 1009.8mb 52f
4:20am 8 10 mph 1009.8mb 51f
4:10am 6 8 mph 1009.8mb 51f
4:00am 6 8 mph 1009.8mb 51f
3:50am 5 7 mph 1009.8mb 51f
3:40am 3 10 mph 1010.2mb 51f
3:30am 8 13 mph 1010.2mb 51f
3:20am 7 9 mph 1010.2mb 51f
3:10am 6 9 mph 1010.2mb 51f
3:00am 6 10 mph 1010.5mb 51f
2:50am 9 13 mph 1010.5mb 51f
2:40am 9 11 mph 1010.5mb 51f
2:30am 7 9 mph 1010.5mb 50f
2:20am 6 8 mph 1010.8mb 50f
2:10am 7 8 mph 1010.8mb 50f
2:00am 7 8 mph 1011.2mb 50f
1:50am 6 8 mph 1011.2mb 49f
1:40am 6 7 mph 1011.5mb 49f
1:30am 6 6 mph 1011.5mb 48f
1:20am 3 7 mph 1011.5mb 48f
1:10am 3 5 mph 1011.5mb 49f
1:00am 3 6 mph 1011.5mb 49f
12:50am 6 6 mph 1011.5mb 49f
12:40am 5 9 mph 1011.9mb 49f
12:30am 3 9 mph 1011.9mb 49f
12:20am 2 9 mph 1011.9mb 49f
12:10am 6 9 mph 1012.2mb 51f
12:00am 6 8 mph 1012.2mb 54f
Mon 05/22 11:50pm 6 11 mph 1011.9mb 54f
11:40pm 9 13 mph 1011.5mb 54f
11:30pm 10 14 mph 1011.5mb 54f
11:20pm 11 16 mph 1011.5mb 55f
11:10pm 11 16 mph 1011.5mb 55f
11:00pm 10 15 mph 1011.5mb 55f
10:50pm 13 15 mph 1011.5mb 56f
10:40pm 10 16 mph 1011.5mb 56f
10:30pm 13 16 mph 1011.5mb 56f
10:20pm 11 17 mph 1011.5mb 56f
10:10pm 11 16 mph 1011.5mb 56f
10:00pm 11 17 mph 1011.9mb 56f
9:50pm 13 16 mph 1011.9mb 57f
9:40pm 13 18 mph 1011.9mb 57f
9:30pm 15 21 mph 1011.9mb 57f
9:20pm 14 22 mph 1011.9mb 57f
9:10pm 15 21 mph 1011.5mb 57f
9:00pm 15 20 mph 1011.5mb 57f
8:50pm 15 21 mph 1011.9mb 56f
8:40pm 16 24 mph 1011.5mb 56f
8:30pm 16 22 mph 1011.9mb 56f
8:20pm 18 25 mph 1011.9mb 56f
8:10pm 17 23 mph 1011.9mb 57f
8:00pm 17 24 mph 1011.9mb 57f
7:50pm 17 25 mph 1011.9mb 57f
7:40pm 16 23 mph 1011.9mb 56f
7:30pm 15 21 mph 1011.9mb 53f
7:20pm 14 23 mph 1011.9mb 53f
7:10pm 16 21 mph 1011.9mb 54f
7:00pm 17 22 mph 1011.9mb 54f
6:50pm 16 23 mph 1011.9mb 54f
6:40pm 17 23 mph 1012.2mb 54f
6:30pm 15 23 mph 1012.2mb 53f
6:20pm 18 23 mph 1012.2mb 54f
6:10pm 18 24 mph 1012.2mb 54f
6:00pm 21 25 mph 1012.2mb 54f
5:50pm 16 23 mph 1012.2mb 53f
5:40pm 20 24 mph 1012.2mb 53f
5:30pm 20 25 mph 1012.2mb 53f
5:20pm 16 26 mph 1012.2mb 53f
5:10pm 22 29 mph 1012.2mb 54f
5:00pm 20 29 mph 1012.5mb 54f
4:50pm 24 30 mph 1012.5mb 54f
4:49pm 23 30 mph 1012.5mb 54f
4:40pm 21 28 mph 1012.2mb 55f
4:30pm 22 29 mph 1012.5mb 55f
4:20pm 23 30 mph 1012.5mb 55f
4:10pm 24 28 mph 1012.5mb 56f
4:00pm 21 29 mph 1012.5mb 56f
3:50pm 22 29 mph 1012.9mb 55f
3:40pm 20 26 mph 1012.9mb 55f
3:30pm 17 24 mph 1012.9mb 55f
3:20pm 18 25 mph 1013.2mb 55f
3:10pm 17 25 mph 1013.2mb 54f
3:00pm 18 24 mph 1013.2mb 53f
2:50pm 17 24 mph 1013.5mb 53f
2:40pm 20 24 mph 1013.2mb 53f
2:30pm 18 24 mph 1013.2mb 53f
2:20pm 18 23 mph 1013.5mb 53f
2:10pm 20 24 mph 1013.5mb 52f
2:00pm 16 22 mph 1013.9mb 51f
1:50pm 16 24 mph 1013.9mb 52f
1:40pm 16 23 mph 1014.2mb 52f
1:30pm 15 22 mph 1014.2mb 52f
1:20pm 16 22 mph 1014.2mb 51f
1:10pm 14 21 mph 1014.2mb 52f
1:00pm 13 20 mph 1013.9mb 51f
12:50pm 15 21 mph 1014.2mb 51f
12:40pm 14 21 mph 1014.2mb 51f
12:30pm 14 23 mph 1014.2mb 51f
12:20pm 13 20 mph 1014.2mb 51f
12:10pm 13 22 mph 1014.2mb 51f
12:00pm 14 22 mph 1014.2mb 51f
11:50am 13 21 mph 1014.2mb 51f
11:40am 13 20 mph 1014.2mb 50f
11:30am 13 20 mph 1014.2mb 50f
11:20am 13 21 mph 1014.2mb 50f
11:10am 13 18 mph 1014.2mb 50f
11:00am 16 23 mph 1014.2mb 49f
10:50am 17 24 mph 1014.2mb 49f
10:40am 18 23 mph 1014.2mb 49f
10:30am 17 22 mph 1014.2mb 48f
10:20am 17 23 mph 1014.6mb 48f
10:10am 20 24 mph 1014.6mb 48f
10:00am 20 24 mph 1014.2mb 47f
9:50am 20 25 mph 1014.2mb 47f
9:40am 21 24 mph 1014.2mb 47f
9:30am 18 23 mph 1014.2mb 47f
9:20am 18 24 mph 1013.9mb 47f
9:10am 21 26 mph 1014.2mb 46f
9:00am 21 24 mph 1013.9mb 46f
8:50am 21 25 mph 1013.9mb 46f
8:40am 21 24 mph 1013.9mb 46f
8:30am 18 21 mph 1013.9mb 46f
8:20am 16 20 mph 1013.5mb 46f
8:10am 17 21 mph 1013.5mb 46f
8:00am 17 20 mph 1013.5mb 46f
7:50am 16 20 mph 1013.5mb 46f
7:40am 17 21 mph 1013.5mb 46f
7:30am 16 20 mph 1013.5mb 46f
7:20am 16 20 mph 1013.5mb 46f
7:10am 16 21 mph 1013.5mb 46f
7:00am 17 21 mph 1013.5mb 46f
6:50am 16 21 mph 1013.2mb 46f
6:40am 16 21 mph 1013.2mb 46f
6:30am 17 23 mph 1012.9mb 46f
6:20am 16 23 mph 1012.9mb 46f
6:10am 15 21 mph 1012.9mb 46f
6:00am 16 21 mph 1012.9mb 46f
5:50am 16 22 mph 1012.9mb 46f
5:40am 18 23 mph 1012.5mb 46f
5:30am 18 22 mph 1012.5mb 46f
5:20am 20 22 mph 1012.5mb 46f
5:10am 18 22 mph 1012.5mb 46f
5:00am 17 23 mph 1012.5mb 46f
4:50am 17 22 mph 1012.5mb 46f
4:40am 18 22 mph 1012.5mb 46f
4:30am 17 22 mph 1012.5mb 46f
4:20am 20 22 mph 1012.2mb 46f
4:10am 20 23 mph 1012.2mb 46f
4:00am 21 25 mph 1012.2mb 46f
3:50am 21 24 mph 1012.2mb 46f
3:40am 21 25 mph 1012.2mb 46f
3:30am 20 23 mph 1012.2mb 46f
3:20am 21 24 mph 1012.2mb 46f
3:10am 17 22 mph 1012.2mb 46f
3:00am 18 23 mph 1012.5mb 46f
2:50am 17 21 mph 1012.5mb 46f
2:40am 17 22 mph 1012.5mb 45f
2:30am 17 22 mph 1012.5mb 45f
2:20am 20 23 mph 1012.5mb 46f
2:10am 17 22 mph 1012.5mb 46f
2:00am 16 22 mph 1012.5mb 45f
1:50am 17 23 mph 1012.5mb 45f
1:40am 18 23 mph 1012.5mb 45f
1:30am 17 23 mph 1012.9mb 45f
1:20am 20 25 mph 1012.9mb 45f
1:10am 22 28 mph 1012.9mb 46f
1:00am 24 28 mph 1012.9mb 46f
12:50am 23 25 mph 1012.9mb 46f
12:40am 21 25 mph 1013.2mb 46f
12:30am 22 25 mph 1013.2mb 47f
12:20am 20 24 mph 1013.2mb 46f
12:10am 20 24 mph 1013.2mb 47f
12:00am 20 22 mph 1013.2mb 46f
Sun 05/21 11:50pm 15 22 mph 1013.5mb 46f
11:40pm 17 22 mph 1013.5mb 46f
11:30pm 17 22 mph 1013.5mb 46f
11:20pm 18 23 mph 1013.9mb 47f
11:10pm 17 21 mph 1013.9mb 46f
11:00pm 16 20 mph 1013.9mb 46f
10:50pm 15 20 mph 1013.9mb 46f
10:40pm 15 18 mph 1013.5mb 47f
10:30pm 14 20 mph 1013.9mb 47f
10:20pm 16 20 mph 1013.5mb 47f
10:10pm 15 18 mph 1013.5mb 47f
10:00pm 16 18 mph 1013.5mb 47f
9:50pm 16 20 mph 1013.2mb 47f
9:40pm 17 21 mph 1013.2mb 47f
9:30pm 17 21 mph 1013.2mb 47f
9:20pm 16 20 mph 1013.2mb 47f
9:10pm 18 22 mph 1013.2mb 47f
9:00pm 21 24 mph 1012.9mb 48f
8:50pm 22 26 mph 1012.9mb 48f
8:40pm 22 25 mph 1012.9mb 48f
8:30pm 20 22 mph 1012.9mb 47f
8:20pm 17 21 mph 1012.9mb 47f
8:10pm 16 21 mph 1012.9mb 47f
8:00pm 16 20 mph 1012.9mb 48f
7:50pm 16 20 mph 1012.9mb 48f
7:40pm 18 21 mph 1012.9mb 48f
7:30pm 15 21 mph 1012.5mb 48f
7:20pm 16 20 mph 1012.9mb 48f
7:10pm 13 17 mph 1012.9mb 48f
7:00pm 10 22 mph 1012.9mb 49f
6:50pm 17 22 mph 1012.9mb 49f
6:40pm 15 18 mph 1012.5mb 48f
6:30pm 13 20 mph 1012.9mb 49f
6:20pm 10 21 mph 1012.9mb 49f
6:10pm 15 18 mph 1012.5mb 49f
6:00pm 14 22 mph 1012.9mb 49f
5:50pm 15 21 mph 1012.9mb 50f
5:40pm 14 18 mph 1012.9mb 49f
5:30pm 13 17 mph 1012.9mb 49f
5:20pm 11 16 mph 1012.5mb 50f
5:10pm 11 17 mph 1012.5mb 50f
5:00pm 13 17 mph 1012.5mb 50f
4:50pm 11 18 mph 1012.9mb 50f
4:40pm 11 18 mph 1012.5mb 51f
4:30pm 13 18 mph 1012.5mb 51f
4:20pm 14 21 mph 1012.5mb 51f
4:10pm 11 20 mph 1012.9mb 51f
4:00pm 13 17 mph 1012.9mb 51f
3:50pm 11 17 mph 1012.5mb 51f
3:40pm 11 18 mph 1012.9mb 51f
3:30pm 13 20 mph 1012.9mb 51f
3:20pm 13 18 mph 1012.9mb 52f
3:10pm 13 22 mph 1012.9mb 52f
3:00pm 14 20 mph 1012.5mb 53f
2:50pm 11 20 mph 1012.9mb 53f
2:40pm 13 20 mph 1012.5mb 53f
2:30pm 13 20 mph 1012.5mb 53f
2:20pm 11 21 mph 1012.5mb 53f
2:10pm 13 20 mph 1012.2mb 53f
2:00pm 15 22 mph 1012.2mb 53f
1:50pm 16 22 mph 1012.2mb 53f
1:40pm 14 22 mph 1012.2mb 53f
1:30pm 15 20 mph 1012.2mb 53f
1:20pm 15 20 mph 1011.9mb 53f
1:10pm 14 20 mph 1011.9mb 53f
1:00pm 15 20 mph 1011.9mb 53f
12:50pm 13 21 mph 1011.9mb 52f
12:40pm 14 20 mph 1011.5mb 52f
12:30pm 13 21 mph 1011.5mb 52f
12:20pm 17 20 mph 1011.5mb 53f
12:10pm 14 18 mph 1011.5mb 53f
12:00pm 14 20 mph 1011.5mb 52f
11:50am 14 21 mph 1011.2mb 52f
11:40am 14 21 mph 1011.2mb 53f
11:30am 13 18 mph 1011.2mb 52f
11:20am 14 18 mph 1011.5mb 52f
11:10am 14 18 mph 1011.5mb 53f
11:00am 14 20 mph 1011.5mb 54f
10:50am 13 20 mph 1011.2mb 54f
10:40am 13 17 mph 1011.5mb 56f
10:30am 14 21 mph 1011.5mb 57f
10:20am 14 21 mph 1011.5mb 58f
10:10am 15 18 mph 1011.5mb 59f
10:00am 13 16 mph 1011.5mb 59f
9:50am 10 16 mph 1011.5mb 59f
9:40am 9 14 mph 1011.5mb 59f
9:30am 9 11 mph 1011.5mb 58f
9:20am 8 15 mph 1011.5mb 58f
9:10am 13 16 mph 1011.2mb 57f
9:00am 11 16 mph 1011.2mb 57f
8:50am 10 16 mph 1011.5mb 57f
8:40am 11 17 mph 1011.5mb 56f
8:30am 13 17 mph 1011.5mb 56f
8:20am 13 17 mph 1011.5mb 56f
8:10am 11 15 mph 1011.5mb 56f
8:00am 11 17 mph 1011.5mb 55f
7:50am 13 16 mph 1011.5mb 55f
7:40am 14 18 mph 1011.5mb 55f
7:30am 14 21 mph 1011.5mb 55f
7:20am 13 18 mph 1011.5mb 55f
7:10am 11 20 mph 1011.5mb 55f
7:00am 13 20 mph 1011.5mb 55f
6:50am 15 21 mph 1012.2mb 56f
6:40am 13 21 mph 1012.2mb 55f
6:30am 15 20 mph 1012.2mb 55f
6:20am 15 21 mph 1012.2mb 55f
6:10am 13 22 mph 1012.2mb 55f
6:00am 15 22 mph 1011.9mb 55f
5:50am 16 23 mph 1011.9mb 56f
5:40am 15 21 mph 1011.9mb 56f
5:30am 14 21 mph 1012.2mb 56f
5:20am 11 17 mph 1011.9mb 56f
5:10am 15 20 mph 1012.2mb 56f
5:00am 13 18 mph 1012.2mb 56f
4:50am 11 18 mph 1012.2mb 56f
4:40am 13 18 mph 1012.2mb 56f
4:30am 13 21 mph 1012.2mb 56f
4:20am 13 20 mph 1012.2mb 56f
4:10am 13 21 mph 1012.2mb 56f
4:00am 14 22 mph 1012.2mb 56f
3:50am 16 23 mph 1012.2mb 56f
3:40am 16 22 mph 1012.2mb 56f
3:30am 16 21 mph 1012.5mb 56f
3:20am 13 18 mph 1012.5mb 56f
3:10am 15 21 mph 1012.9mb 56f
3:00am 15 21 mph 1012.9mb 56f
2:50am 16 23 mph 1012.9mb 56f
2:40am 15 22 mph 1013.2mb 56f
2:30am 15 21 mph 1013.5mb 56f
2:20am 14 20 mph 1013.5mb 56f
2:10am 17 23 mph 1013.5mb 56f
2:00am 13 21 mph 1013.5mb 56f
1:50am 11 21 mph 1013.5mb 56f
1:40am 15 22 mph 1013.5mb 56f
1:30am 15 23 mph 1013.5mb 56f
1:20am 14 21 mph 1013.5mb 56f
1:10am 16 23 mph 1013.9mb 56f
1:00am 13 22 mph 1014.2mb 56f
12:50am 16 22 mph 1014.2mb 56f
12:40am 14 21 mph 1014.6mb 56f
12:30am 15 21 mph 1014.6mb 56f
12:20am 15 24 mph 1014.6mb 56f
12:10am 16 22 mph 1014.6mb 56f
12:00am 16 23 mph 1014.6mb 56f
Sat 05/20 11:50pm 15 24 mph 1014.9mb 55f
11:40pm 15 23 mph 1014.9mb 55f
11:30pm 16 24 mph 1014.9mb 55f
11:20pm 15 24 mph 1015.2mb 55f
11:10pm 15 26 mph 1015.2mb 55f
11:00pm 16 24 mph 1015.2mb 55f
10:50pm 15 26 mph 1015.2mb 55f
10:40pm 16 25 mph 1015.2mb 55f
10:30pm 17 26 mph 1015.2mb 55f
10:20pm 20 28 mph 1015.2mb 55f
10:10pm 18 28 mph 1015.6mb 55f
10:00pm 16 26 mph 1015.6mb 55f
9:50pm 17 28 mph 1015.6mb 55f
9:40pm 17 28 mph 1015.6mb 55f
9:30pm 21 29 mph 1015.6mb 55f
9:20pm 18 29 mph 1015.6mb 55f
9:10pm 21 28 mph 1015.9mb 55f
9:00pm 20 26 mph 1015.9mb 56f
8:50pm 20 30 mph 1015.9mb 56f
8:47pm 20 30 mph 1015.9mb 56f
8:40pm 17 26 mph 1015.9mb 56f
8:30pm 17 26 mph 1016.3mb 56f
8:20pm 20 33 mph 1016.3mb 56f
8:10pm 22 29 mph 1016.3mb 56f
8:00pm 16 25 mph 1016.3mb 56f
7:50pm 20 28 mph 1016.3mb 56f
7:40pm 21 30 mph 1015.9mb 56f
7:39pm 20 30 mph 1015.9mb 56f
7:30pm 20 28 mph 1015.9mb 56f
7:20pm 20 28 mph 1015.9mb 56f
7:10pm 17 28 mph 1015.6mb 56f
7:00pm 20 26 mph 1015.9mb 55f
6:50pm 17 25 mph 1016.3mb 55f
6:40pm 16 24 mph 1016.3mb 55f
6:30pm 16 22 mph 1016.3mb 55f
6:20pm 22 29 mph 1015.9mb 55f
6:10pm 18 31 mph 1015.6mb 54f
6:00pm 20 31 mph 1015.6mb 54f
5:50pm 21 30 mph 1015.6mb 54f
5:40pm 20 30 mph 1015.6mb 54f
5:30pm 14 25 mph 1015.9mb 53f
5:20pm 18 26 mph 1016.3mb 53f
5:10pm 17 25 mph 1016.3mb 53f
5:00pm 13 25 mph 1016.9mb 53f
4:50pm 18 28 mph 1016.6mb 52f
4:40pm 21 30 mph 1016.6mb 52f
4:30pm 15 29 mph 1016.9mb 53f
4:20pm 17 25 mph 1017.6mb 53f
4:10pm 14 24 mph 1017.6mb 53f
4:00pm 17 24 mph 1017.9mb 54f
3:50pm 15 22 mph 1017.9mb 54f
3:40pm 15 23 mph 1018.3mb 55f
3:30pm 15 26 mph 1018.3mb 55f
3:20pm 11 24 mph 1018.6mb 55f
3:10pm 14 22 mph 1019mb 56f
3:00pm 13 22 mph 1019.3mb 56f
2:50pm 15 24 mph 1019.3mb 57f
2:40pm 11 24 mph 1019.6mb 58f
2:30pm 15 25 mph 1019.6mb 60f
2:20pm 14 26 mph 1020mb 61f
2:10pm 18 29 mph 1020mb 62f
2:00pm 22 28 mph 1020.3mb 62f
1:50pm 16 25 mph 1020.3mb 63f
1:40pm 15 25 mph 1020.7mb 63f
1:30pm 16 25 mph 1020.7mb 63f
1:20pm 18 30 mph 1020.3mb 63f
1:10pm 21 31 mph 1020mb 63f
1:00pm 16 26 mph 1020mb 64f
12:50pm 18 28 mph 1020mb 64f
12:40pm 17 31 mph 1020mb 64f
12:31pm 18 31 mph 1020.3mb 64f
12:30pm 18 25 mph 1020mb 64f
12:20pm 17 26 mph 1020.3mb 63f
12:10pm 16 22 mph 1020.3mb 62f
12:00pm 17 23 mph 1020.7mb 62f
11:50am 20 24 mph 1020.7mb 62f
11:40am 17 24 mph 1021.3mb 62f
11:30am 15 24 mph 1021.3mb 62f
11:20am 16 23 mph 1021.7mb 62f